createdAt,value
2023-01-24T00:00:54.777Z,1026.44
2023-01-24T00:01:54.736Z,1026.44
2023-01-24T00:02:54.724Z,1026.35
2023-01-24T00:03:54.713Z,1026.36
2023-01-24T00:04:54.713Z,1026.44
2023-01-24T00:05:54.693Z,1026.37
2023-01-24T00:06:54.768Z,1026.41
2023-01-24T00:07:54.727Z,1026.36
2023-01-24T00:08:54.678Z,1026.42
2023-01-24T00:09:54.670Z,1026.41
2023-01-24T00:10:54.644Z,1026.49
2023-01-24T00:11:54.643Z,1026.41
2023-01-24T00:12:54.631Z,1026.4
2023-01-24T00:13:54.612Z,1026.4
2023-01-24T00:14:54.602Z,1026.4
2023-01-24T00:15:54.596Z,1026.34
2023-01-24T00:16:54.584Z,1026.32
2023-01-24T00:17:54.568Z,1026.34
2023-01-24T00:18:54.566Z,1026.32
2023-01-24T00:19:54.563Z,1026.26
2023-01-24T00:20:54.533Z,1026.27
2023-01-24T00:21:54.529Z,1026.3
2023-01-24T00:22:54.535Z,1026.31
2023-01-24T00:23:54.537Z,1026.31
2023-01-24T00:24:54.496Z,1026.3
2023-01-24T00:25:54.484Z,1026.36
2023-01-24T00:26:54.478Z,1026.36
2023-01-24T00:27:54.470Z,1026.38
2023-01-24T00:28:54.459Z,1026.3
2023-01-24T00:29:54.452Z,1026.41
2023-01-24T00:31:54.455Z,1026.31
2023-01-24T00:32:54.414Z,1026.35
2023-01-24T00:33:54.405Z,1026.28
2023-01-24T00:34:54.401Z,1026.29
2023-01-24T00:35:54.386Z,1026.27
2023-01-24T00:36:54.378Z,1026.26
2023-01-24T00:37:54.364Z,1026.3
2023-01-24T00:38:54.383Z,1026.27
2023-01-24T00:39:54.357Z,1026.34
2023-01-24T00:40:54.337Z,1026.3
2023-01-24T00:41:54.329Z,1026.35
2023-01-24T00:42:54.307Z,1026.34
2023-01-24T00:43:54.306Z,1026.27
2023-01-24T00:44:54.304Z,1026.28
2023-01-24T00:45:54.290Z,1026.26
2023-01-24T00:46:54.275Z,1026.18
2023-01-24T00:47:54.266Z,1026.24
2023-01-24T00:48:54.250Z,1026.23
2023-01-24T00:49:54.264Z,1026.23
2023-01-24T00:50:54.226Z,1026.23
2023-01-24T00:51:54.236Z,1026.3
2023-01-24T00:52:54.225Z,1026.29
2023-01-24T00:53:54.199Z,1026.35
2023-01-24T00:54:54.197Z,1026.32
2023-01-24T00:55:54.196Z,1026.29
2023-01-24T00:56:54.193Z,1026.32
2023-01-24T00:57:54.172Z,1026.31
2023-01-24T00:58:54.176Z,1026.33
2023-01-24T00:59:54.143Z,1026.34
2023-01-24T01:00:54.133Z,1026.3
2023-01-24T01:01:54.122Z,1026.31
2023-01-24T01:02:54.114Z,1026.3
2023-01-24T01:03:54.121Z,1026.3
2023-01-24T01:04:54.122Z,1026.31
2023-01-24T01:05:54.077Z,1026.25
2023-01-24T01:06:54.084Z,1026.39
2023-01-24T01:07:54.066Z,1026.27
2023-01-24T01:08:54.052Z,1026.32
2023-01-24T01:09:54.035Z,1026.3
2023-01-24T01:10:54.027Z,1026.29
2023-01-24T01:11:54.033Z,1026.27
2023-01-24T01:12:54.009Z,1026.34
2023-01-24T01:13:54.018Z,1026.29
2023-01-24T01:14:54.011Z,1026.36
2023-01-24T01:15:53.975Z,1026.32
2023-01-24T01:16:53.970Z,1026.33
2023-01-24T01:17:53.965Z,1026.31
2023-01-24T01:18:53.942Z,1026.3
2023-01-24T01:19:54.050Z,1026.28
2023-01-24T01:20:53.931Z,1026.3
2023-01-24T01:21:53.922Z,1026.29
2023-01-24T01:22:53.905Z,1026.31
2023-01-24T01:23:53.897Z,1026.33
2023-01-24T01:24:53.920Z,1026.3
2023-01-24T01:25:53.872Z,1026.24
2023-01-24T01:26:53.891Z,1026.26
2023-01-24T01:27:53.893Z,1026.25
2023-01-24T01:28:53.848Z,1026.27
2023-01-24T01:29:53.839Z,1026.3
2023-01-24T01:30:53.822Z,1026.31
2023-01-24T01:31:53.818Z,1026.39
2023-01-24T01:32:53.806Z,1026.4
2023-01-24T01:33:53.794Z,1026.34
2023-01-24T01:34:53.811Z,1026.38
2023-01-24T01:35:53.778Z,1026.38
2023-01-24T01:36:53.783Z,1026.37
2023-01-24T01:37:53.756Z,1026.41
2023-01-24T01:38:53.749Z,1026.4
2023-01-24T01:39:53.752Z,1026.38
2023-01-24T01:40:53.736Z,1026.46
2023-01-24T01:41:53.716Z,1026.37
2023-01-24T01:42:53.716Z,1026.41
2023-01-24T01:43:53.701Z,1026.39
2023-01-24T01:44:53.682Z,1026.38
2023-01-24T01:45:53.684Z,1026.33
2023-01-24T01:46:53.686Z,1026.35
2023-01-24T01:47:53.653Z,1026.31
2023-01-24T01:48:53.654Z,1026.33
2023-01-24T01:49:53.633Z,1026.29
2023-01-24T01:50:53.631Z,1026.31
2023-01-24T01:51:53.625Z,1026.3
2023-01-24T01:52:53.600Z,1026.38
2023-01-24T01:53:53.595Z,1026.37
2023-01-24T01:54:53.591Z,1026.33
2023-01-24T01:55:53.576Z,1026.38
2023-01-24T01:56:53.561Z,1026.32
2023-01-24T01:57:53.571Z,1026.34
2023-01-24T01:58:53.540Z,1026.35
2023-01-24T01:59:53.545Z,1026.31
2023-01-24T02:00:53.537Z,1026.3
2023-01-24T02:01:53.549Z,1026.37
2023-01-24T02:02:53.503Z,1026.28
2023-01-24T02:03:53.493Z,1026.31
2023-01-24T02:04:53.506Z,1026.22
2023-01-24T02:05:53.471Z,1026.33
2023-01-24T02:06:53.467Z,1026.3
2023-01-24T02:08:53.442Z,1026.29
2023-01-24T02:09:53.437Z,1026.3
2023-01-24T02:10:53.420Z,1026.33
2023-01-24T02:11:53.437Z,1026.36
2023-01-24T02:12:53.414Z,1026.36
2023-01-24T02:13:53.416Z,1026.39
2023-01-24T02:14:53.383Z,1026.34
2023-01-24T02:15:53.382Z,1026.37
2023-01-24T02:16:53.363Z,1026.32
2023-01-24T02:17:53.349Z,1026.36
2023-01-24T02:18:53.339Z,1026.38
2023-01-24T02:19:53.351Z,1026.4
2023-01-24T02:20:53.321Z,1026.35
2023-01-24T02:21:53.363Z,1026.35
2023-01-24T02:22:53.299Z,1026.31
2023-01-24T02:23:53.286Z,1026.29
2023-01-24T02:24:53.318Z,1026.33
2023-01-24T02:25:53.265Z,1026.29
2023-01-24T02:26:53.266Z,1026.22
2023-01-24T02:27:53.248Z,1026.26
2023-01-24T02:28:53.234Z,1026.28
2023-01-24T02:29:53.236Z,1026.27
2023-01-24T02:30:53.229Z,1026.23
2023-01-24T02:31:53.241Z,1026.23
2023-01-24T02:32:53.206Z,1026.26
2023-01-24T02:33:53.243Z,1026.22
2023-01-24T02:34:53.175Z,1026.22
2023-01-24T02:35:53.167Z,1026.22
2023-01-24T02:36:53.155Z,1026.21
2023-01-24T02:37:53.146Z,1026.08
2023-01-24T02:38:53.177Z,1026.23
2023-01-24T02:39:53.121Z,1026.1
2023-01-24T02:40:53.116Z,1026.14
2023-01-24T02:41:53.110Z,1026.18
2023-01-24T02:42:53.092Z,1026.27
2023-01-24T02:43:53.097Z,1026.2
2023-01-24T02:44:53.079Z,1026.14
2023-01-24T02:45:53.062Z,1026.21
2023-01-24T02:46:53.049Z,1026.16
2023-01-24T02:47:53.041Z,1026.2
2023-01-24T02:48:53.034Z,1026.14
2023-01-24T02:49:53.028Z,1026.2
2023-01-24T02:50:53.075Z,1026.14
2023-01-24T02:51:53.001Z,1026.15
2023-01-24T02:52:52.998Z,1026.13
2023-01-24T02:53:52.979Z,1026.22
2023-01-24T02:54:52.979Z,1026.19
2023-01-24T02:55:52.959Z,1026.15
2023-01-24T02:56:52.952Z,1026.23
2023-01-24T02:57:52.942Z,1026.11
2023-01-24T02:58:52.932Z,1026.21
2023-01-24T02:59:52.925Z,1026.1
2023-01-24T03:00:52.919Z,1026.09
2023-01-24T03:01:52.907Z,1026.02
2023-01-24T03:02:52.890Z,1026.08
2023-01-24T03:03:52.881Z,1026.11
2023-01-24T03:04:52.869Z,1026.09
2023-01-24T03:05:52.885Z,1026.12
2023-01-24T03:06:52.886Z,1026.09
2023-01-24T03:07:52.839Z,1026.01
2023-01-24T03:08:52.833Z,1026.06
2023-01-24T03:09:52.825Z,1026.01
2023-01-24T03:10:52.806Z,1026.05
2023-01-24T03:11:52.815Z,1025.98
2023-01-24T03:12:52.791Z,1026
2023-01-24T03:13:52.783Z,1026.04
2023-01-24T03:14:52.777Z,1025.99
2023-01-24T03:15:52.802Z,1025.94
2023-01-24T03:16:52.763Z,1025.99
2023-01-24T03:17:52.756Z,1025.94
2023-01-24T03:18:52.731Z,1025.93
2023-01-24T03:19:52.722Z,1025.87
2023-01-24T03:20:52.708Z,1025.95
2023-01-24T03:21:52.700Z,1025.92
2023-01-24T03:22:52.703Z,1025.85
2023-01-24T03:23:52.695Z,1025.85
2023-01-24T03:24:52.681Z,1025.89
2023-01-24T03:25:52.660Z,1025.78
2023-01-24T03:26:52.654Z,1025.8
2023-01-24T03:27:52.652Z,1025.82
2023-01-24T03:28:52.626Z,1025.79
2023-01-24T03:29:52.613Z,1025.83
2023-01-24T03:30:52.611Z,1025.78
2023-01-24T03:31:52.596Z,1025.76
2023-01-24T03:32:52.614Z,1025.76
2023-01-24T03:33:52.574Z,1025.82
2023-01-24T03:34:52.563Z,1025.78
2023-01-24T03:35:52.570Z,1025.78
2023-01-24T03:36:52.549Z,1025.83
2023-01-24T03:37:52.550Z,1025.72
2023-01-24T03:38:52.535Z,1025.77
2023-01-24T03:39:52.514Z,1025.83
2023-01-24T03:40:52.521Z,1025.71
2023-01-24T03:41:52.490Z,1025.86
2023-01-24T03:42:52.481Z,1025.85
2023-01-24T03:43:52.485Z,1025.78
2023-01-24T03:44:52.487Z,1025.82
2023-01-24T03:45:52.476Z,1025.87
2023-01-24T03:46:52.450Z,1025.86
2023-01-24T03:47:52.432Z,1025.87
2023-01-24T03:48:52.448Z,1025.83
2023-01-24T03:49:52.423Z,1025.92
2023-01-24T03:50:52.427Z,1025.94
2023-01-24T03:51:52.403Z,1025.95
2023-01-24T03:52:52.390Z,1025.92
2023-01-24T03:53:52.455Z,1025.86
2023-01-24T03:54:52.400Z,1025.86
2023-01-24T03:55:52.375Z,1025.89
2023-01-24T03:56:52.338Z,1025.91
2023-01-24T03:57:52.334Z,1025.93
2023-01-24T03:58:52.336Z,1025.93
2023-01-24T03:59:52.312Z,1025.89
2023-01-24T04:00:52.312Z,1025.94
2023-01-24T04:01:52.305Z,1025.85
2023-01-24T04:02:52.294Z,1025.9
2023-01-24T04:03:52.272Z,1025.85
2023-01-24T04:04:52.281Z,1025.89
2023-01-24T04:05:52.258Z,1025.95
2023-01-24T04:06:52.237Z,1025.9
2023-01-24T04:07:52.232Z,1026
2023-01-24T04:08:52.218Z,1025.98
2023-01-24T04:09:52.210Z,1025.97
2023-01-24T04:10:52.205Z,1026.03
2023-01-24T04:11:52.196Z,1026
2023-01-24T04:12:52.183Z,1025.86
2023-01-24T04:13:52.164Z,1025.88
2023-01-24T04:14:52.158Z,1025.92
2023-01-24T04:15:52.144Z,1025.93
2023-01-24T04:16:52.146Z,1025.97
2023-01-24T04:17:52.135Z,1025.87
2023-01-24T04:18:52.123Z,1025.96
2023-01-24T04:19:52.116Z,1025.94
2023-01-24T04:20:52.096Z,1026.04
2023-01-24T04:21:52.118Z,1025.95
2023-01-24T04:22:52.079Z,1025.98
2023-01-24T04:23:52.066Z,1026.05
2023-01-24T04:24:52.064Z,1026
2023-01-24T04:25:52.066Z,1025.99
2023-01-24T04:26:52.052Z,1026.04
2023-01-24T04:27:52.026Z,1026.03
2023-01-24T04:28:52.016Z,1026.04
2023-01-24T04:29:52.001Z,1026.05
2023-01-24T04:30:52.002Z,1026
2023-01-24T04:31:51.996Z,1026.03
2023-01-24T04:32:51.986Z,1026.03
2023-01-24T04:33:51.967Z,1026
2023-01-24T04:34:51.952Z,1026.03
2023-01-24T04:35:51.946Z,1026.03
2023-01-24T04:36:51.951Z,1026
2023-01-24T04:37:51.924Z,1026.02
2023-01-24T04:38:51.927Z,1025.97
2023-01-24T04:39:51.899Z,1025.94
2023-01-24T04:40:51.893Z,1025.94
2023-01-24T04:41:51.890Z,1025.9
2023-01-24T04:42:51.876Z,1025.87
2023-01-24T04:43:51.862Z,1025.92
2023-01-24T04:44:51.873Z,1025.91
2023-01-24T04:45:51.861Z,1025.97
2023-01-24T04:46:51.837Z,1025.96
2023-01-24T04:47:51.824Z,1025.96
2023-01-24T04:48:51.819Z,1025.95
2023-01-24T04:49:51.858Z,1025.85
2023-01-24T04:50:51.794Z,1025.86
2023-01-24T04:51:51.805Z,1025.84
2023-01-24T04:52:51.773Z,1025.8
2023-01-24T04:53:51.761Z,1025.87
2023-01-24T04:54:51.751Z,1025.86
2023-01-24T04:55:51.753Z,1025.87
2023-01-24T04:56:51.735Z,1025.87
2023-01-24T04:57:51.724Z,1025.9
2023-01-24T04:58:51.711Z,1025.9
2023-01-24T04:59:51.708Z,1025.87
2023-01-24T05:00:51.695Z,1025.84
2023-01-24T05:01:51.684Z,1025.86
2023-01-24T05:02:51.671Z,1025.84
2023-01-24T05:03:51.662Z,1025.86
2023-01-24T05:04:51.648Z,1025.84
2023-01-24T05:05:51.644Z,1025.85
2023-01-24T05:06:51.629Z,1025.91
2023-01-24T05:07:51.623Z,1025.92
2023-01-24T05:08:51.615Z,1025.94
2023-01-24T05:09:51.602Z,1025.92
2023-01-24T05:10:51.586Z,1025.95
2023-01-24T05:11:51.596Z,1025.93
2023-01-24T05:12:51.583Z,1025.95
2023-01-24T05:13:59.161Z,1025.97
2023-01-24T05:14:51.550Z,1025.87
2023-01-24T05:15:51.538Z,1026
2023-01-24T05:16:51.528Z,1025.91
2023-01-24T05:17:51.518Z,1026
2023-01-24T05:18:51.507Z,1025.99
2023-01-24T05:19:51.519Z,1026.03
2023-01-24T05:20:51.489Z,1026.09
2023-01-24T05:21:51.478Z,1026.04
2023-01-24T05:22:51.468Z,1026.04
2023-01-24T05:23:51.454Z,1026.04
2023-01-24T05:24:51.447Z,1026.06
2023-01-24T05:25:51.441Z,1026.08
2023-01-24T05:26:51.439Z,1026.05
2023-01-24T05:27:51.415Z,1026.07
2023-01-24T05:28:51.403Z,1026.05
2023-01-24T05:29:51.410Z,1026.08
2023-01-24T05:30:51.401Z,1026.09
2023-01-24T05:31:51.393Z,1026.06
2023-01-24T05:32:51.363Z,1026.06
2023-01-24T05:33:51.356Z,1026.13
2023-01-24T05:34:51.351Z,1026.13
2023-01-24T05:35:51.344Z,1026.15
2023-01-24T05:36:51.327Z,1026.16
2023-01-24T05:37:51.337Z,1026.12
2023-01-24T05:38:51.350Z,1026.2
2023-01-24T05:39:51.310Z,1026.24
2023-01-24T05:40:51.285Z,1026.19
2023-01-24T05:41:51.276Z,1026.21
2023-01-24T05:42:51.270Z,1026.23
2023-01-24T05:43:51.251Z,1026.22
2023-01-24T05:44:51.242Z,1026.22
2023-01-24T05:45:51.238Z,1026.21
2023-01-24T05:46:51.233Z,1026.17
2023-01-24T05:47:51.223Z,1026.14
2023-01-24T05:48:51.204Z,1026.23
2023-01-24T05:49:51.190Z,1026.23
2023-01-24T05:50:51.188Z,1026.19
2023-01-24T05:51:51.180Z,1026.18
2023-01-24T05:52:51.160Z,1026.17
2023-01-24T05:53:51.150Z,1026.19
2023-01-24T05:54:51.145Z,1026.21
2023-01-24T05:55:51.134Z,1026.24
2023-01-24T05:56:51.121Z,1026.23
2023-01-24T05:57:51.109Z,1026.22
2023-01-24T05:58:51.101Z,1026.3
2023-01-24T05:59:51.118Z,1026.27
2023-01-24T06:00:51.084Z,1026.22
2023-01-24T06:01:51.070Z,1026.23
2023-01-24T06:02:51.072Z,1026.23
2023-01-24T06:03:51.060Z,1026.25
2023-01-24T06:04:51.041Z,1026.24
2023-01-24T06:05:51.031Z,1026.21
2023-01-24T06:06:51.029Z,1026.22
2023-01-24T06:07:51.008Z,1026.26
2023-01-24T06:08:50.998Z,1026.31
2023-01-24T06:09:51.002Z,1026.32
2023-01-24T06:10:50.994Z,1026.24
2023-01-24T06:11:50.969Z,1026.2
2023-01-24T06:12:50.960Z,1026.27
2023-01-24T06:13:50.986Z,1026.29
2023-01-24T06:14:50.950Z,1026.37
2023-01-24T06:15:50.947Z,1026.29
2023-01-24T06:16:50.914Z,1026.3
2023-01-24T06:17:50.906Z,1026.36
2023-01-24T06:18:50.932Z,1026.36
2023-01-24T06:19:50.891Z,1026.39
2023-01-24T06:20:50.878Z,1026.39
2023-01-24T06:21:50.890Z,1026.44
2023-01-24T06:22:50.866Z,1026.39
2023-01-24T06:23:50.855Z,1026.36
2023-01-24T06:24:50.840Z,1026.42
2023-01-24T06:25:50.862Z,1026.42
2023-01-24T06:26:50.846Z,1026.4
2023-01-24T06:27:50.819Z,1026.41
2023-01-24T06:28:50.799Z,1026.51
2023-01-24T06:29:50.804Z,1026.37
2023-01-24T06:30:50.817Z,1026.48
2023-01-24T06:31:50.769Z,1026.47
2023-01-24T06:32:50.784Z,1026.55
2023-01-24T06:33:50.743Z,1026.49
2023-01-24T06:34:50.732Z,1026.44
2023-01-24T06:35:50.741Z,1026.52
2023-01-24T06:36:50.736Z,1026.52
2023-01-24T06:37:50.708Z,1026.58
2023-01-24T06:38:50.723Z,1026.58
2023-01-24T06:39:50.684Z,1026.5
2023-01-24T06:41:50.680Z,1026.63
2023-01-24T06:42:50.660Z,1026.65
2023-01-24T06:43:50.657Z,1026.66
2023-01-24T06:44:50.649Z,1026.57
2023-01-24T06:45:50.632Z,1026.63
2023-01-24T06:46:50.611Z,1026.61
2023-01-24T06:47:50.607Z,1026.66
2023-01-24T06:48:50.595Z,1026.63
2023-01-24T06:49:50.582Z,1026.64
2023-01-24T06:50:50.575Z,1026.66
2023-01-24T06:51:50.576Z,1026.57
2023-01-24T06:52:50.561Z,1026.65
2023-01-24T06:53:50.552Z,1026.7
2023-01-24T06:54:50.539Z,1026.66
2023-01-24T06:55:50.611Z,1026.66
2023-01-24T06:56:50.534Z,1026.74
2023-01-24T06:57:50.538Z,1026.72
2023-01-24T06:58:50.503Z,1026.73
2023-01-24T06:59:50.487Z,1026.71
2023-01-24T07:00:50.472Z,1026.73
2023-01-24T07:01:50.467Z,1026.74
2023-01-24T07:02:50.451Z,1026.74
2023-01-24T07:03:50.442Z,1026.78
2023-01-24T07:04:50.436Z,1026.82
2023-01-24T07:05:50.420Z,1026.76
2023-01-24T07:06:50.427Z,1026.78
2023-01-24T07:07:50.394Z,1026.83
2023-01-24T07:08:50.406Z,1026.81
2023-01-24T07:09:50.377Z,1026.83
2023-01-24T07:10:50.365Z,1026.83
2023-01-24T07:11:50.372Z,1026.86
2023-01-24T07:12:50.345Z,1026.82
2023-01-24T07:13:50.343Z,1026.83
2023-01-24T07:14:50.359Z,1026.82
2023-01-24T07:15:50.316Z,1026.81
2023-01-24T07:16:50.327Z,1026.8
2023-01-24T07:17:50.305Z,1026.81
2023-01-24T07:18:50.287Z,1026.81
2023-01-24T07:19:50.284Z,1026.83
2023-01-24T07:20:50.271Z,1026.77
2023-01-24T07:21:50.274Z,1026.79
2023-01-24T07:22:50.246Z,1026.8
2023-01-24T07:23:50.246Z,1026.84
2023-01-24T07:24:50.253Z,1026.85
2023-01-24T07:25:50.214Z,1026.82
2023-01-24T07:26:50.219Z,1026.83
2023-01-24T07:27:50.189Z,1026.86
2023-01-24T07:28:50.185Z,1026.85
2023-01-24T07:29:50.174Z,1026.8
2023-01-24T07:30:50.182Z,1026.86
2023-01-24T07:31:50.152Z,1026.83
2023-01-24T07:32:50.158Z,1026.83
2023-01-24T07:33:50.131Z,1026.78
2023-01-24T07:34:50.120Z,1026.86
2023-01-24T07:35:50.111Z,1026.9
2023-01-24T07:36:50.124Z,1026.83
2023-01-24T07:37:50.099Z,1026.88
2023-01-24T07:38:50.086Z,1026.89
2023-01-24T07:39:50.078Z,1026.89
2023-01-24T07:40:50.062Z,1026.88
2023-01-24T07:41:50.054Z,1026.89
2023-01-24T07:42:50.056Z,1026.92
2023-01-24T07:43:50.171Z,1026.85
2023-01-24T07:44:51.026Z,1026.96
2023-01-24T07:45:50.016Z,1026.92
2023-01-24T07:46:49.999Z,1026.9
2023-01-24T07:47:49.995Z,1026.91
2023-01-24T07:48:50.012Z,1027
2023-01-24T07:49:50.018Z,1027
2023-01-24T07:50:49.996Z,1027.02
2023-01-24T07:51:49.953Z,1027.01
2023-01-24T07:52:49.937Z,1026.98
2023-01-24T07:53:49.929Z,1026.98
2023-01-24T07:54:49.929Z,1027
2023-01-24T07:55:49.910Z,1027.06
2023-01-24T07:56:49.899Z,1027.01
2023-01-24T07:57:49.903Z,1027.06
2023-01-24T07:58:49.878Z,1027.07
2023-01-24T07:59:49.889Z,1027.04
2023-01-24T08:00:49.892Z,1027.01
2023-01-24T08:01:49.848Z,1027.03
2023-01-24T08:02:49.833Z,1027.04
2023-01-24T08:03:49.837Z,1027.02
2023-01-24T08:04:49.838Z,1027.04
2023-01-24T08:05:49.803Z,1027.03
2023-01-24T08:06:49.800Z,1027.13
2023-01-24T08:07:49.788Z,1027.12
2023-01-24T08:08:49.776Z,1027.14
2023-01-24T08:09:49.770Z,1027.1
2023-01-24T08:10:49.754Z,1027.07
2023-01-24T08:11:49.748Z,1027.08
2023-01-24T08:12:49.754Z,1027.1
2023-01-24T08:13:49.730Z,1027.07
2023-01-24T08:14:49.729Z,1027.04
2023-01-24T08:15:49.702Z,1027.12
2023-01-24T08:16:49.699Z,1027.06
2023-01-24T08:17:49.684Z,1027.04
2023-01-24T08:18:49.685Z,1027.06
2023-01-24T08:19:49.669Z,1027.11
2023-01-24T08:20:49.659Z,1027.13
2023-01-24T08:21:49.643Z,1027.11
2023-01-24T08:22:49.634Z,1027.09
2023-01-24T08:23:49.621Z,1027.05
2023-01-24T08:24:49.617Z,1027.07
2023-01-24T08:25:49.608Z,1027.07
2023-01-24T08:26:49.606Z,1027.08
2023-01-24T08:27:49.585Z,1027.14
2023-01-24T08:28:49.570Z,1027.09
2023-01-24T08:29:49.565Z,1027.09
2023-01-24T08:30:49.548Z,1027.1
2023-01-24T08:31:49.539Z,1027.16
2023-01-24T08:32:49.561Z,1027.21
2023-01-24T08:33:49.582Z,1027.21
2023-01-24T08:34:49.546Z,1027.19
2023-01-24T08:35:49.497Z,1027.22
2023-01-24T08:36:49.486Z,1027.19
2023-01-24T08:37:49.483Z,1027.22
2023-01-24T08:38:49.474Z,1027.25
2023-01-24T08:39:49.464Z,1027.28
2023-01-24T08:40:49.451Z,1027.3
2023-01-24T08:41:49.451Z,1027.25
2023-01-24T08:42:49.428Z,1027.24
2023-01-24T08:43:49.415Z,1027.28
2023-01-24T08:44:49.416Z,1027.32
2023-01-24T08:45:49.404Z,1027.31
2023-01-24T08:46:49.390Z,1027.31
2023-01-24T08:47:49.390Z,1027.32
2023-01-24T08:48:49.367Z,1027.29
2023-01-24T08:49:49.356Z,1027.3
2023-01-24T08:50:49.353Z,1027.36
2023-01-24T08:51:49.336Z,1027.43
2023-01-24T08:52:49.327Z,1027.32
2023-01-24T08:53:49.362Z,1027.4
2023-01-24T08:54:49.304Z,1027.47
2023-01-24T08:55:49.300Z,1027.44
2023-01-24T08:57:49.296Z,1027.42
2023-01-24T08:58:49.267Z,1027.48
2023-01-24T08:59:49.260Z,1027.47
2023-01-24T09:00:49.246Z,1027.4
2023-01-24T09:01:49.235Z,1027.45
2023-01-24T09:02:49.221Z,1027.43
2023-01-24T09:03:49.211Z,1027.47
2023-01-24T09:04:49.206Z,1027.47
2023-01-24T09:05:49.199Z,1027.46
2023-01-24T09:06:49.182Z,1027.51
2023-01-24T09:07:49.173Z,1027.54
2023-01-24T09:08:49.161Z,1027.56
2023-01-24T09:09:49.181Z,1027.51
2023-01-24T09:10:49.146Z,1027.53
2023-01-24T09:11:49.138Z,1027.48
2023-01-24T09:12:49.132Z,1027.47
2023-01-24T09:13:49.114Z,1027.5
2023-01-24T09:14:49.113Z,1027.49
2023-01-24T09:15:49.100Z,1027.48
2023-01-24T09:16:49.082Z,1027.51
2023-01-24T09:17:49.072Z,1027.46
2023-01-24T09:18:49.061Z,1027.51
2023-01-24T09:19:49.073Z,1027.51
2023-01-24T09:20:49.105Z,1027.54
2023-01-24T09:21:49.222Z,1027.48
2023-01-24T09:22:49.024Z,1027.49
2023-01-24T09:23:49.014Z,1027.5
2023-01-24T09:24:49.042Z,1027.5
2023-01-24T09:25:49.001Z,1027.45
2023-01-24T09:26:48.986Z,1027.55
2023-01-24T09:27:48.968Z,1027.5
2023-01-24T09:28:48.967Z,1027.51
2023-01-24T09:29:48.948Z,1027.52
2023-01-24T09:30:48.943Z,1027.51
2023-01-24T09:31:48.930Z,1027.5
2023-01-24T09:32:48.945Z,1027.49
2023-01-24T09:33:48.940Z,1027.49
2023-01-24T09:34:48.909Z,1027.52
2023-01-24T09:35:48.891Z,1027.54
2023-01-24T09:36:48.879Z,1027.63
2023-01-24T09:37:48.886Z,1027.56
2023-01-24T09:38:48.861Z,1027.54
2023-01-24T09:39:48.845Z,1027.6
2023-01-24T09:40:48.854Z,1027.59
2023-01-24T09:41:48.839Z,1027.64
2023-01-24T09:42:48.852Z,1027.56
2023-01-24T09:43:49.155Z,1027.61
2023-01-24T09:44:48.803Z,1027.63
2023-01-24T09:45:48.800Z,1027.61
2023-01-24T09:46:48.792Z,1027.63
2023-01-24T09:47:48.773Z,1027.63
2023-01-24T09:48:48.760Z,1027.66
2023-01-24T09:49:48.760Z,1027.6
2023-01-24T09:50:48.738Z,1027.61
2023-01-24T09:51:48.728Z,1027.65
2023-01-24T09:52:48.715Z,1027.65
2023-01-24T09:53:48.708Z,1027.7
2023-01-24T09:54:48.717Z,1027.63
2023-01-24T09:55:48.694Z,1027.63
2023-01-24T09:56:48.681Z,1027.6
2023-01-24T09:57:48.667Z,1027.61
2023-01-24T09:58:48.657Z,1027.63
2023-01-24T09:59:48.646Z,1027.58
2023-01-24T10:00:48.632Z,1027.61
2023-01-24T10:01:48.628Z,1027.56
2023-01-24T10:02:48.614Z,1027.65
2023-01-24T10:03:48.615Z,1027.64
2023-01-24T10:04:48.599Z,1027.65
2023-01-24T10:05:48.593Z,1027.66
2023-01-24T10:06:48.575Z,1027.66
2023-01-24T10:07:48.578Z,1027.6
2023-01-24T10:08:48.552Z,1027.61
2023-01-24T10:09:48.543Z,1027.61
2023-01-24T10:10:48.533Z,1027.59
2023-01-24T10:11:48.519Z,1027.54
2023-01-24T10:12:48.517Z,1027.58
2023-01-24T10:13:48.506Z,1027.51
2023-01-24T10:14:48.499Z,1027.51
2023-01-24T10:15:48.485Z,1027.59
2023-01-24T10:16:48.472Z,1027.62
2023-01-24T10:17:48.487Z,1027.49
2023-01-24T10:18:48.459Z,1027.56
2023-01-24T10:19:48.443Z,1027.61
2023-01-24T10:20:48.438Z,1027.52
2023-01-24T10:21:48.427Z,1027.57
2023-01-24T10:22:48.413Z,1027.56
2023-01-24T10:23:48.399Z,1027.5
2023-01-24T10:24:48.401Z,1027.5
2023-01-24T10:25:48.383Z,1027.5
2023-01-24T10:26:48.371Z,1027.52
2023-01-24T10:27:48.376Z,1027.51
2023-01-24T10:28:48.359Z,1027.53
2023-01-24T10:29:49.351Z,1027.54
2023-01-24T10:30:48.360Z,1027.54
2023-01-24T10:31:48.334Z,1027.57
2023-01-24T10:32:48.355Z,1027.52
2023-01-24T10:33:48.330Z,1027.49
2023-01-24T10:34:48.286Z,1027.5
2023-01-24T10:35:48.290Z,1027.48
2023-01-24T10:36:48.263Z,1027.53
2023-01-24T10:37:48.298Z,1027.48
2023-01-24T10:38:48.239Z,1027.55
2023-01-24T10:39:48.233Z,1027.5
2023-01-24T10:40:48.225Z,1027.48
2023-01-24T10:41:48.247Z,1027.5
2023-01-24T10:42:48.199Z,1027.52
2023-01-24T10:43:48.203Z,1027.45
2023-01-24T10:44:48.179Z,1027.42
2023-01-24T10:45:48.180Z,1027.41
2023-01-24T10:46:48.159Z,1027.39
2023-01-24T10:47:48.166Z,1027.44
2023-01-24T10:48:48.141Z,1027.35
2023-01-24T10:49:48.142Z,1027.42
2023-01-24T10:50:48.118Z,1027.34
2023-01-24T10:51:48.105Z,1027.31
2023-01-24T10:52:48.101Z,1027.35
2023-01-24T10:53:48.092Z,1027.33
2023-01-24T10:54:48.076Z,1027.34
2023-01-24T10:55:48.079Z,1027.25
2023-01-24T10:56:48.057Z,1027.34
2023-01-24T10:57:48.043Z,1027.27
2023-01-24T10:58:48.050Z,1027.26
2023-01-24T10:59:48.026Z,1027.25
2023-01-24T11:00:48.016Z,1027.2
2023-01-24T11:01:48.013Z,1027.24
2023-01-24T11:02:47.997Z,1027.25
2023-01-24T11:03:47.990Z,1027.29
2023-01-24T11:04:47.995Z,1027.25
2023-01-24T11:05:47.960Z,1027.22
2023-01-24T11:06:47.996Z,1027.2
2023-01-24T11:07:47.958Z,1027.22
2023-01-24T11:08:47.934Z,1027.19
2023-01-24T11:09:47.940Z,1027.25
2023-01-24T11:10:47.937Z,1027.24
2023-01-24T11:11:47.906Z,1027.28
2023-01-24T11:12:47.894Z,1027.28
2023-01-24T11:13:47.888Z,1027.2
2023-01-24T11:14:58.706Z,1027.27
2023-01-24T11:17:08.674Z,1027.25
2023-01-24T11:18:17.502Z,1027.28
2023-01-24T11:19:08.634Z,1027.24
2023-01-24T11:20:08.625Z,1027.26
2023-01-24T11:21:16.190Z,1027.28
2023-01-24T11:22:08.610Z,1027.24
2023-01-24T11:24:27.504Z,1027.3
2023-01-24T11:25:27.481Z,1027.22
2023-01-24T11:26:27.472Z,1027.22
2023-01-24T11:27:27.460Z,1027.27
2023-01-24T11:28:27.447Z,1027.28
2023-01-24T11:29:27.517Z,1027.27
2023-01-24T11:30:27.434Z,1027.24
2023-01-24T11:31:27.425Z,1027.22
2023-01-24T11:32:27.410Z,1027.19
2023-01-24T11:33:27.401Z,1027.2
2023-01-24T11:34:27.385Z,1027.16
2023-01-24T11:35:34.968Z,1027.14
2023-01-24T11:36:27.371Z,1027.14
2023-01-24T11:37:27.373Z,1027.15
2023-01-24T11:38:27.347Z,1027.15
2023-01-24T11:39:27.400Z,1027.07
2023-01-24T11:40:27.338Z,1027.11
2023-01-24T11:41:27.341Z,1027.1
2023-01-24T11:42:27.320Z,1027.06
2023-01-24T11:43:27.293Z,1027.06
2023-01-24T11:44:27.285Z,1027.1
2023-01-24T11:45:27.281Z,1027.07
2023-01-24T11:46:27.267Z,1027
2023-01-24T11:47:27.264Z,1027.06
2023-01-24T11:48:28.085Z,1027.02
2023-01-24T11:49:27.234Z,1027.05
2023-01-24T11:50:27.227Z,1027.04
2023-01-24T11:51:27.219Z,1027
2023-01-24T11:52:27.199Z,1027.02
2023-01-24T11:53:27.195Z,1027.01
2023-01-24T11:54:27.181Z,1027.04
2023-01-24T11:55:27.170Z,1026.96
2023-01-24T11:56:27.169Z,1027.01
2023-01-24T11:57:27.160Z,1026.93
2023-01-24T11:58:27.146Z,1026.9
2023-01-24T11:59:27.130Z,1026.89
2023-01-24T12:00:27.117Z,1026.97
2023-01-24T12:01:27.120Z,1026.88
2023-01-24T12:02:27.099Z,1026.93
2023-01-24T12:03:27.087Z,1026.92
2023-01-24T12:04:27.117Z,1026.94
2023-01-24T12:05:27.082Z,1026.92
2023-01-24T12:06:27.110Z,1026.93
2023-01-24T12:07:27.061Z,1026.92
2023-01-24T12:08:27.032Z,1026.97
2023-01-24T12:09:27.023Z,1026.9
2023-01-24T12:10:27.014Z,1026.9
2023-01-24T12:11:27.019Z,1026.91
2023-01-24T12:12:27.000Z,1026.86
2023-01-24T12:13:26.991Z,1026.81
2023-01-24T12:14:26.981Z,1026.8
2023-01-24T12:15:26.963Z,1026.78
2023-01-24T12:16:26.950Z,1026.77